sensor_id;sensor_type;location;lat;lon;timestamp;pressure;altitude;pressure_sealevel;temperature;humidity
44481;BME280;30184;42.018;23.670;2023-07-20T00:01:09;91376.28;;;19.72;72.02
44481;BME280;30184;42.018;23.670;2023-07-20T00:03:58;91362.19;;;19.59;72.94
44481;BME280;30184;42.018;23.670;2023-07-20T00:06:27;91375.97;;;19.65;73.42
44481;BME280;30184;42.018;23.670;2023-07-20T00:08:57;91369.41;;;19.57;73.74
44481;BME280;30184;42.018;23.670;2023-07-20T00:11:27;91371.69;;;19.58;73.75
44481;BME280;30184;42.018;23.670;2023-07-20T00:13:57;91366.16;;;19.58;73.08
44481;BME280;30184;42.018;23.670;2023-07-20T00:16:27;91367.16;;;19.55;73.30
44481;BME280;30184;42.018;23.670;2023-07-20T00:18:58;91412.06;;;19.41;73.06
44481;BME280;30184;42.018;23.670;2023-07-20T00:21:27;91357.41;;;19.54;73.06
44481;BME280;30184;42.018;23.670;2023-07-20T00:23:57;91346.03;;;19.47;73.93
44481;BME280;30184;42.018;23.670;2023-07-20T00:26:27;91349.75;;;19.38;74.10
44481;BME280;30184;42.018;23.670;2023-07-20T00:28:57;91346.28;;;19.43;74.08
44481;BME280;30184;42.018;23.670;2023-07-20T00:31:27;91346.78;;;19.42;74.30
44481;BME280;30184;42.018;23.670;2023-07-20T00:33:58;91334.00;;;19.38;74.38
44481;BME280;30184;42.018;23.670;2023-07-20T00:36:28;91341.25;;;19.36;74.53
44481;BME280;30184;42.018;23.670;2023-07-20T00:38:58;91345.94;;;19.30;74.46
44481;BME280;30184;42.018;23.670;2023-07-20T00:41:27;91245.91;;;18.59;74.68
44481;BME280;30184;42.018;23.670;2023-07-20T00:43:58;91342.91;;;19.28;74.94
44481;BME280;30184;42.018;23.670;2023-07-20T00:46:27;91350.16;;;19.25;74.76
44481;BME280;30184;42.018;23.670;2023-07-20T00:48:58;91366.66;;;19.25;74.96
44481;BME280;30184;42.018;23.670;2023-07-20T00:51:28;91292.28;;;18.77;74.86
44481;BME280;30184;42.018;23.670;2023-07-20T00:53:58;91358.59;;;19.16;75.41
44481;BME280;30184;42.018;23.670;2023-07-20T00:56:27;91358.31;;;19.14;75.12
44481;BME280;30184;42.018;23.670;2023-07-20T00:58:57;91346.78;;;19.10;75.07
44481;BME280;30184;42.018;23.670;2023-07-20T01:01:28;91368.53;;;19.08;75.40
44481;BME280;30184;42.018;23.670;2023-07-20T01:03:58;91368.75;;;19.05;75.48
44481;BME280;30184;42.018;23.670;2023-07-20T01:06:34;91364.56;;;18.83;75.97
44481;BME280;30184;42.018;23.670;2023-07-20T01:09:11;91327.75;;;18.75;75.53
44481;BME280;30184;42.018;23.670;2023-07-20T01:11:49;91296.31;;;18.56;75.90
44481;BME280;30184;42.018;23.670;2023-07-20T01:14:20;91393.41;;;18.93;76.14
44481;BME280;30184;42.018;23.670;2023-07-20T01:16:49;91360.13;;;18.91;76.57
44481;BME280;30184;42.018;23.670;2023-07-20T01:19:21;91361.38;;;18.90;76.47
44481;BME280;30184;42.018;23.670;2023-07-20T01:21:55;91156.75;;;17.31;76.00
44481;BME280;30184;42.018;23.670;2023-07-20T01:24:44;91366.34;;;18.86;76.51
44481;BME280;30184;42.018;23.670;2023-07-20T01:30:46;91362.03;;;18.80;76.27
44481;BME280;30184;42.018;23.670;2023-07-20T01:33:21;91302.09;;;18.32;76.83
44481;BME280;30184;42.018;23.670;2023-07-20T01:35:54;91359.50;;;18.76;77.19
44481;BME280;30184;42.018;23.670;2023-07-20T01:38:24;91363.97;;;18.74;77.04
44481;BME280;30184;42.018;23.670;2023-07-20T01:40:53;91358.94;;;18.72;77.27
44481;BME280;30184;42.018;23.670;2023-07-20T01:43:24;91353.19;;;18.70;76.88
44481;BME280;30184;42.018;23.670;2023-07-20T01:45:53;91367.44;;;18.69;76.84
44481;BME280;30184;42.018;23.670;2023-07-20T01:48:24;91348.16;;;18.43;76.57
44481;BME280;30184;42.018;23.670;2023-07-20T01:50:54;91303.75;;;18.24;76.87
44481;BME280;30184;42.018;23.670;2023-07-20T01:53:23;91355.34;;;18.60;76.79
44481;BME280;30184;42.018;23.670;2023-07-20T01:55:52;91355.84;;;18.59;77.09
44481;BME280;30184;42.018;23.670;2023-07-20T01:58:22;91354.31;;;18.58;76.86
44481;BME280;30184;42.018;23.670;2023-07-20T02:00:52;91348.06;;;18.57;77.01
44481;BME280;30184;42.018;23.670;2023-07-20T02:03:21;91356.00;;;18.55;77.30
44481;BME280;30184;42.018;23.670;2023-07-20T02:05:53;91360.00;;;18.54;77.19
44481;BME280;30184;42.018;23.670;2023-07-20T02:08:22;91356.44;;;18.48;77.29
44481;BME280;30184;42.018;23.670;2023-07-20T02:10:52;91295.75;;;18.00;77.22
44481;BME280;30184;42.018;23.670;2023-07-20T02:13:21;91359.66;;;18.47;77.15
44481;BME280;30184;42.018;23.670;2023-07-20T02:15:50;91290.06;;;17.83;77.40
44481;BME280;30184;42.018;23.670;2023-07-20T02:18:21;91219.75;;;17.05;77.48
44481;BME280;30184;42.018;23.670;2023-07-20T02:20:54;91402.34;;;18.42;77.42
44481;BME280;30184;42.018;23.670;2023-07-20T02:23:23;91364.09;;;18.39;77.11
44481;BME280;30184;42.018;23.670;2023-07-20T02:25:59;91370.06;;;18.37;77.37
44481;BME280;30184;42.018;23.670;2023-07-20T02:28:29;91378.78;;;18.36;77.11
44481;BME280;30184;42.018;23.670;2023-07-20T02:30:58;91373.78;;;18.34;77.57
44481;BME280;30184;42.018;23.670;2023-07-20T02:33:28;91397.91;;;18.24;77.61
44481;BME280;30184;42.018;23.670;2023-07-20T02:35:59;91388.16;;;18.23;77.69
44481;BME280;30184;42.018;23.670;2023-07-20T02:38:28;91377.69;;;18.27;77.80
44481;BME280;30184;42.018;23.670;2023-07-20T02:40:57;91384.91;;;18.25;77.65
44481;BME280;30184;42.018;23.670;2023-07-20T02:43:26;91377.44;;;18.25;78.10
44481;BME280;30184;42.018;23.670;2023-07-20T02:45:56;91352.59;;;17.94;77.96
44481;BME280;30184;42.018;23.670;2023-07-20T02:48:25;91383.81;;;18.17;77.83
44481;BME280;30184;42.018;23.670;2023-07-20T02:50:54;91372.56;;;18.15;77.68
44481;BME280;30184;42.018;23.670;2023-07-20T02:53:25;91337.69;;;17.80;78.06
44481;BME280;30184;42.018;23.670;2023-07-20T02:55:54;91371.19;;;18.05;78.30
44481;BME280;30184;42.018;23.670;2023-07-20T02:58:23;91402.72;;;17.74;78.05
44481;BME280;30184;42.018;23.670;2023-07-20T03:00:52;91373.94;;;18.05;78.10
44481;BME280;30184;42.018;23.670;2023-07-20T03:03:22;91383.41;;;18.04;78.05
44481;BME280;30184;42.018;23.670;2023-07-20T03:05:51;91384.16;;;18.04;78.26
44481;BME280;30184;42.018;23.670;2023-07-20T03:08:22;91377.63;;;18.02;78.59
44481;BME280;30184;42.018;23.670;2023-07-20T03:10:54;91379.63;;;18.01;78.28
44481;BME280;30184;42.018;23.670;2023-07-20T03:13:24;91378.13;;;18.00;78.24
44481;BME280;30184;42.018;23.670;2023-07-20T03:15:53;91321.47;;;17.62;78.46
44481;BME280;30184;42.018;23.670;2023-07-20T03:18:23;91384.31;;;17.95;78.54
44481;BME280;30184;42.018;23.670;2023-07-20T03:20:52;91371.53;;;17.92;78.53
44481;BME280;30184;42.018;23.670;2023-07-20T03:23:21;91378.25;;;17.91;78.92
44481;BME280;30184;42.018;23.670;2023-07-20T03:25:50;91378.53;;;17.93;79.18
44481;BME280;30184;42.018;23.670;2023-07-20T03:28:24;91347.84;;;17.74;78.49
44481;BME280;30184;42.018;23.670;2023-07-20T03:30:54;91306.44;;;17.58;78.73
44481;BME280;30184;42.018;23.670;2023-07-20T03:33:26;91366.38;;;18.00;78.76
44481;BME280;30184;42.018;23.670;2023-07-20T03:35:58;91308.97;;;17.61;78.34
44481;BME280;30184;42.018;23.670;2023-07-20T03:38:27;91374.13;;;18.01;78.21
44481;BME280;30184;42.018;23.670;2023-07-20T03:40:57;91369.22;;;18.05;78.49
44481;BME280;30184;42.018;23.670;2023-07-20T03:43:28;91369.75;;;18.09;78.44
44481;BME280;30184;42.018;23.670;2023-07-20T03:45:57;91375.78;;;18.13;77.97
44481;BME280;30184;42.018;23.670;2023-07-20T03:48:27;91369.34;;;18.16;78.34
44481;BME280;30184;42.018;23.670;2023-07-20T03:50:56;91366.09;;;18.18;77.76
44481;BME280;30184;42.018;23.670;2023-07-20T03:53:27;91362.66;;;18.23;78.15
44481;BME280;30184;42.018;23.670;2023-07-20T03:55:56;91366.69;;;18.27;78.01
44481;BME280;30184;42.018;23.670;2023-07-20T03:58:25;91370.00;;;18.32;77.33
44481;BME280;30184;42.018;23.670;2023-07-20T04:00:57;91374.00;;;18.31;76.99
44481;BME280;30184;42.018;23.670;2023-07-20T04:03:26;91308.63;;;17.88;77.73
44481;BME280;30184;42.018;23.670;2023-07-20T04:05:56;91329.25;;;18.04;77.50
44481;BME280;30184;42.018;23.670;2023-07-20T04:08:25;91410.25;;;18.14;77.52
44481;BME280;30184;42.018;23.670;2023-07-20T04:10:54;91367.63;;;18.45;77.26
44481;BME280;30184;42.018;23.670;2023-07-20T04:13:24;91364.41;;;18.46;77.30
44481;BME280;30184;42.018;23.670;2023-07-20T04:15:53;91327.78;;;18.29;76.95
44481;BME280;30184;42.018;23.670;2023-07-20T04:18:24;91366.56;;;18.57;76.70
44481;BME280;30184;42.018;23.670;2023-07-20T04:20:53;91370.34;;;18.59;76.43
44481;BME280;30184;42.018;23.670;2023-07-20T04:23:22;91355.13;;;18.64;75.59
44481;BME280;30184;42.018;23.670;2023-07-20T04:25:52;91348.94;;;18.69;75.51
44481;BME280;30184;42.018;23.670;2023-07-20T04:28:22;91354.84;;;18.88;74.93
44481;BME280;30184;42.018;23.670;2023-07-20T04:30:52;91357.31;;;19.12;74.37
44481;BME280;30184;42.018;23.670;2023-07-20T04:33:23;91353.50;;;19.35;74.56
44481;BME280;30184;42.018;23.670;2023-07-20T04:35:56;91355.41;;;19.55;74.32
44481;BME280;30184;42.018;23.670;2023-07-20T04:38:34;91358.00;;;19.69;72.84
44481;BME280;30184;42.018;23.670;2023-07-20T04:41:19;91291.84;;;19.53;72.21
44481;BME280;30184;42.018;23.670;2023-07-20T04:43:50;91344.91;;;20.07;70.23
44481;BME280;30184;42.018;23.670;2023-07-20T04:46:25;91349.84;;;20.45;69.24
44481;BME280;30184;42.018;23.670;2023-07-20T04:48:57;91356.66;;;20.67;69.35
44481;BME280;30184;42.018;23.670;2023-07-20T04:51:28;91351.69;;;20.93;67.26
44481;BME280;30184;42.018;23.670;2023-07-20T04:53:58;91351.75;;;21.21;65.87
44481;BME280;30184;42.018;23.670;2023-07-20T04:56:32;91314.09;;;21.35;65.93
44481;BME280;30184;42.018;23.670;2023-07-20T04:59:03;91302.53;;;21.58;65.29
44481;BME280;30184;42.018;23.670;2023-07-20T05:01:32;91345.06;;;22.19;64.52
44481;BME280;30184;42.018;23.670;2023-07-20T05:04:03;91331.88;;;22.47;63.29
44481;BME280;30184;42.018;23.670;2023-07-20T05:06:34;91325.97;;;22.79;62.48
44481;BME280;30184;42.018;23.670;2023-07-20T05:09:04;91324.03;;;23.03;60.75
44481;BME280;30184;42.018;23.670;2023-07-20T05:11:35;91326.66;;;23.26;59.33
44481;BME280;30184;42.018;23.670;2023-07-20T05:14:04;91326.53;;;23.37;59.72
44481;BME280;30184;42.018;23.670;2023-07-20T05:16:35;91322.19;;;23.47;59.00
44481;BME280;30184;42.018;23.670;2023-07-20T05:19:08;91320.66;;;23.52;59.07
44481;BME280;30184;42.018;23.670;2023-07-20T05:21:38;91309.34;;;23.50;58.80
44481;BME280;30184;42.018;23.670;2023-07-20T05:24:09;91342.59;;;23.50;59.23
44481;BME280;30184;42.018;23.670;2023-07-20T05:26:39;91315.06;;;23.57;58.87
44481;BME280;30184;42.018;23.670;2023-07-20T05:29:08;91307.66;;;23.71;59.14
44481;BME280;30184;42.018;23.670;2023-07-20T05:31:38;91270.81;;;23.76;58.66
44481;BME280;30184;42.018;23.670;2023-07-20T05:34:09;91297.84;;;24.13;59.24
44481;BME280;30184;42.018;23.670;2023-07-20T05:36:39;91309.47;;;24.36;56.89
44481;BME280;30184;42.018;23.670;2023-07-20T05:39:09;91305.72;;;24.52;57.30
44481;BME280;30184;42.018;23.670;2023-07-20T05:41:38;91278.66;;;24.39;56.67
44481;BME280;30184;42.018;23.670;2023-07-20T05:44:08;91268.63;;;24.55;55.53
44481;BME280;30184;42.018;23.670;2023-07-20T05:46:38;91287.66;;;24.83;55.12
44481;BME280;30184;42.018;23.670;2023-07-20T05:49:15;91292.84;;;24.73;55.06
44481;BME280;30184;42.018;23.670;2023-07-20T05:51:44;91289.88;;;24.84;55.96
44481;BME280;30184;42.018;23.670;2023-07-20T05:54:14;91295.44;;;24.84;54.08
44481;BME280;30184;42.018;23.670;2023-07-20T05:56:43;91301.38;;;24.94;54.48
44481;BME280;30184;42.018;23.670;2023-07-20T05:59:13;91295.91;;;25.07;55.46
44481;BME280;30184;42.018;23.670;2023-07-20T06:01:43;91287.47;;;25.13;55.11
44481;BME280;30184;42.018;23.670;2023-07-20T06:04:15;91283.03;;;25.23;54.50
44481;BME280;30184;42.018;23.670;2023-07-20T06:06:44;91235.13;;;25.04;55.00
44481;BME280;30184;42.018;23.670;2023-07-20T06:09:14;91307.84;;;25.34;53.90
44481;BME280;30184;42.018;23.670;2023-07-20T06:11:44;91283.47;;;25.27;56.01
44481;BME280;30184;42.018;23.670;2023-07-20T06:14:13;91283.44;;;25.14;54.33
44481;BME280;30184;42.018;23.670;2023-07-20T06:16:43;91286.03;;;25.25;54.10
44481;BME280;30184;42.018;23.670;2023-07-20T06:19:12;91284.75;;;25.26;53.88
44481;BME280;30184;42.018;23.670;2023-07-20T06:21:43;91289.56;;;25.25;54.21
44481;BME280;30184;42.018;23.670;2023-07-20T06:24:13;91284.75;;;25.26;54.08
44481;BME280;30184;42.018;23.670;2023-07-20T06:26:42;91283.34;;;25.19;54.59
44481;BME280;30184;42.018;23.670;2023-07-20T06:29:12;91282.06;;;25.20;52.69
44481;BME280;30184;42.018;23.670;2023-07-20T06:31:42;91278.56;;;25.20;52.55
44481;BME280;30184;42.018;23.670;2023-07-20T06:34:11;91279.94;;;25.26;51.89
44481;BME280;30184;42.018;23.670;2023-07-20T06:36:41;91269.81;;;25.29;52.41
44481;BME280;30184;42.018;23.670;2023-07-20T06:39:12;91270.16;;;25.39;52.05
44481;BME280;30184;42.018;23.670;2023-07-20T06:41:45;91207.34;;;25.04;51.53
44481;BME280;30184;42.018;23.670;2023-07-20T06:44:14;91270.69;;;25.50;50.32
44481;BME280;30184;42.018;23.670;2023-07-20T06:46:44;91251.47;;;25.52;50.31
44481;BME280;30184;42.018;23.670;2023-07-20T06:49:24;91213.41;;;25.34;49.65
44481;BME280;30184;42.018;23.670;2023-07-20T06:51:54;91259.66;;;25.77;50.01
44481;BME280;30184;42.018;23.670;2023-07-20T06:54:25;91267.91;;;25.82;50.37
44481;BME280;30184;42.018;23.670;2023-07-20T06:56:55;91262.13;;;25.93;52.88
44481;BME280;30184;42.018;23.670;2023-07-20T06:59:28;91209.22;;;25.73;53.22
44481;BME280;30184;42.018;23.670;2023-07-20T07:01:57;91284.25;;;26.25;49.80
44481;BME280;30184;42.018;23.670;2023-07-20T07:04:27;91209.50;;;25.95;47.56
44481;BME280;30184;42.018;23.670;2023-07-20T07:06:57;91257.97;;;26.40;48.77
44481;BME280;30184;42.018;23.670;2023-07-20T07:09:27;91241.44;;;26.55;51.81
44481;BME280;30184;42.018;23.670;2023-07-20T07:11:57;91244.53;;;26.64;49.27
44481;BME280;30184;42.018;23.670;2023-07-20T07:14:26;91214.13;;;26.66;48.45
44481;BME280;30184;42.018;23.670;2023-07-20T07:16:56;91157.06;;;26.39;49.14
44481;BME280;30184;42.018;23.670;2023-07-20T07:19:26;91219.38;;;26.91;51.03
44481;BME280;30184;42.018;23.670;2023-07-20T07:21:56;91220.66;;;27.03;49.17
44481;BME280;30184;42.018;23.670;2023-07-20T07:24:28;91223.50;;;27.10;48.65
44481;BME280;30184;42.018;23.670;2023-07-20T07:27:01;91125.91;;;26.61;50.35
44481;BME280;30184;42.018;23.670;2023-07-20T07:29:32;91216.44;;;27.30;50.38
44481;BME280;30184;42.018;23.670;2023-07-20T07:32:02;91204.13;;;27.46;48.22
44481;BME280;30184;42.018;23.670;2023-07-20T07:34:31;91202.56;;;27.59;47.44
44481;BME280;30184;42.018;23.670;2023-07-20T07:37:03;91203.91;;;27.65;45.98
44481;BME280;30184;42.018;23.670;2023-07-20T07:39:33;91209.91;;;27.69;47.79
44481;BME280;30184;42.018;23.670;2023-07-20T07:42:03;91195.84;;;27.82;46.37
44481;BME280;30184;42.018;23.670;2023-07-20T07:44:33;91199.13;;;28.02;46.94
44481;BME280;30184;42.018;23.670;2023-07-20T07:47:03;91178.84;;;28.01;45.89
44481;BME280;30184;42.018;23.670;2023-07-20T07:49:32;91207.69;;;28.32;45.37
44481;BME280;30184;42.018;23.670;2023-07-20T07:52:02;91175.25;;;28.21;45.10
44481;BME280;30184;42.018;23.670;2023-07-20T07:54:33;91156.38;;;28.07;44.24
44481;BME280;30184;42.018;23.670;2023-07-20T07:57:03;91172.75;;;28.46;43.87
44481;BME280;30184;42.018;23.670;2023-07-20T07:59:32;91129.31;;;28.23;43.55
44481;BME280;30184;42.018;23.670;2023-07-20T08:02:05;91133.59;;;28.24;44.04
44481;BME280;30184;42.018;23.670;2023-07-20T08:04:34;91163.16;;;28.70;46.47
44481;BME280;30184;42.018;23.670;2023-07-20T08:07:05;91173.09;;;28.94;45.33
44481;BME280;30184;42.018;23.670;2023-07-20T08:09:36;91180.75;;;29.24;45.80
44481;BME280;30184;42.018;23.670;2023-07-20T08:12:06;91179.66;;;29.35;42.50
44481;BME280;30184;42.018;23.670;2023-07-20T08:14:36;91175.56;;;29.43;43.35
44481;BME280;30184;42.018;23.670;2023-07-20T08:17:05;91195.53;;;29.55;43.41
44481;BME280;30184;42.018;23.670;2023-07-20T08:19:37;91162.88;;;29.57;41.99
44481;BME280;30184;42.018;23.670;2023-07-20T08:22:09;91166.25;;;29.63;42.83
44481;BME280;30184;42.018;23.670;2023-07-20T08:24:42;91134.41;;;29.44;42.73
44481;BME280;30184;42.018;23.670;2023-07-20T08:27:12;91126.56;;;29.42;42.95
44481;BME280;30184;42.018;23.670;2023-07-20T08:29:41;91155.59;;;29.69;44.27
44481;BME280;30184;42.018;23.670;2023-07-20T08:32:11;91168.47;;;29.73;43.39
44481;BME280;30184;42.018;23.670;2023-07-20T08:34:42;91173.50;;;29.82;43.60
44481;BME280;30184;42.018;23.670;2023-07-20T08:37:12;91148.34;;;29.74;44.14
44481;BME280;30184;42.018;23.670;2023-07-20T08:39:43;91153.72;;;29.87;43.67
44481;BME280;30184;42.018;23.670;2023-07-20T08:42:14;91165.28;;;29.91;41.96
44481;BME280;30184;42.018;23.670;2023-07-20T08:44:45;91128.16;;;29.91;42.12
44481;BME280;30184;42.018;23.670;2023-07-20T08:47:18;91124.81;;;29.92;41.88
44481;BME280;30184;42.018;23.670;2023-07-20T08:49:48;91119.22;;;29.92;42.30
44481;BME280;30184;42.018;23.670;2023-07-20T08:52:18;91063.38;;;29.54;41.97
44481;BME280;30184;42.018;23.670;2023-07-20T08:54:49;91128.91;;;29.99;42.80
44481;BME280;30184;42.018;23.670;2023-07-20T08:57:21;91129.66;;;29.77;42.17
44481;BME280;30184;42.018;23.670;2023-07-20T08:59:52;91135.56;;;30.19;41.33
44481;BME280;30184;42.018;23.670;2023-07-20T09:02:25;91114.13;;;30.14;40.71
44481;BME280;30184;42.018;23.670;2023-07-20T09:04:56;91143.34;;;30.35;40.77
44481;BME280;30184;42.018;23.670;2023-07-20T09:07:26;91151.50;;;30.49;40.90
44481;BME280;30184;42.018;23.670;2023-07-20T09:09:58;91125.97;;;30.37;40.23
44481;BME280;30184;42.018;23.670;2023-07-20T09:12:35;91084.59;;;30.28;40.53
44481;BME280;30184;42.018;23.670;2023-07-20T09:15:05;91115.34;;;30.75;39.32
44481;BME280;30184;42.018;23.670;2023-07-20T09:17:35;91059.09;;;30.49;39.39
44481;BME280;30184;42.018;23.670;2023-07-20T09:20:07;91104.16;;;31.00;39.26
44481;BME280;30184;42.018;23.670;2023-07-20T09:22:38;91106.72;;;31.06;40.61
44481;BME280;30184;42.018;23.670;2023-07-20T09:25:13;91096.94;;;31.22;39.12
44481;BME280;30184;42.018;23.670;2023-07-20T09:27:44;91025.72;;;30.75;38.31
44481;BME280;30184;42.018;23.670;2023-07-20T09:30:14;91098.75;;;31.27;38.63
44481;BME280;30184;42.018;23.670;2023-07-20T09:32:47;91077.63;;;31.26;38.44
44481;BME280;30184;42.018;23.670;2023-07-20T09:35:21;91093.00;;;31.42;38.06
44481;BME280;30184;42.018;23.670;2023-07-20T09:37:57;91088.47;;;31.47;38.34
44481;BME280;30184;42.018;23.670;2023-07-20T09:40:37;91090.25;;;31.60;37.96
44481;BME280;30184;42.018;23.670;2023-07-20T09:43:10;91097.00;;;31.57;37.37
44481;BME280;30184;42.018;23.670;2023-07-20T09:45:43;91058.47;;;31.40;37.58
44481;BME280;30184;42.018;23.670;2023-07-20T09:48:16;91075.91;;;31.73;36.27
44481;BME280;30184;42.018;23.670;2023-07-20T09:50:52;91076.06;;;31.75;37.35
44481;BME280;30184;42.018;23.670;2023-07-20T09:53:24;91096.78;;;31.79;37.68
44481;BME280;30184;42.018;23.670;2023-07-20T09:55:56;91068.75;;;31.97;35.73
44481;BME280;30184;42.018;23.670;2023-07-20T09:58:26;91028.47;;;31.84;39.60
44481;BME280;30184;42.018;23.670;2023-07-20T10:00:57;91038.75;;;31.99;36.31
44481;BME280;30184;42.018;23.670;2023-07-20T10:03:31;91031.66;;;31.98;35.37
44481;BME280;30184;42.018;23.670;2023-07-20T10:06:05;91061.22;;;32.16;35.33
44481;BME280;30184;42.018;23.670;2023-07-20T10:08:38;90975.47;;;31.54;35.00
44481;BME280;30184;42.018;23.670;2023-07-20T10:11:15;91056.28;;;32.24;34.55
44481;BME280;30184;42.018;23.670;2023-07-20T10:13:46;91056.75;;;32.31;37.38
44481;BME280;30184;42.018;23.670;2023-07-20T10:16:22;91056.47;;;32.36;33.59
44481;BME280;30184;42.018;23.670;2023-07-20T10:18:59;91059.50;;;32.48;34.16
44481;BME280;30184;42.018;23.670;2023-07-20T10:21:33;91060.66;;;32.62;33.78
44481;BME280;30184;42.018;23.670;2023-07-20T10:24:07;91046.72;;;32.64;33.06
44481;BME280;30184;42.018;23.670;2023-07-20T10:26:40;91040.69;;;32.68;32.78
44481;BME280;30184;42.018;23.670;2023-07-20T10:29:11;91042.44;;;32.80;34.31
44481;BME280;30184;42.018;23.670;2023-07-20T10:31:42;90994.44;;;32.69;32.46
44481;BME280;30184;42.018;23.670;2023-07-20T10:34:12;91037.44;;;32.88;32.83
44481;BME280;30184;42.018;23.670;2023-07-20T10:36:45;91041.59;;;32.97;32.97
44481;BME280;30184;42.018;23.670;2023-07-20T10:39:23;91070.38;;;33.15;31.55
44481;BME280;30184;42.018;23.670;2023-07-20T10:42:07;91037.59;;;33.27;31.48
44481;BME280;30184;42.018;23.670;2023-07-20T10:44:37;90998.81;;;33.35;33.53
44481;BME280;30184;42.018;23.670;2023-07-20T10:47:09;91025.38;;;33.70;31.16
44481;BME280;30184;42.018;23.670;2023-07-20T10:49:57;91027.91;;;34.05;31.28
44481;BME280;30184;42.018;23.670;2023-07-20T10:52:36;91028.22;;;34.28;30.92
44481;BME280;30184;42.018;23.670;2023-07-20T10:55:11;90990.88;;;34.18;30.04
44481;BME280;30184;42.018;23.670;2023-07-20T10:57:43;90996.16;;;34.53;30.06
44481;BME280;30184;42.018;23.670;2023-07-20T11:00:19;91008.25;;;34.84;32.13
44481;BME280;30184;42.018;23.670;2023-07-20T11:02:58;91017.59;;;35.17;29.50
44481;BME280;30184;42.018;23.670;2023-07-20T11:05:38;91013.13;;;35.14;29.57
44481;BME280;30184;42.018;23.670;2023-07-20T11:08:12;90986.28;;;34.83;28.79
44481;BME280;30184;42.018;23.670;2023-07-20T11:10:41;90960.59;;;34.48;30.19
44481;BME280;30184;42.018;23.670;2023-07-20T11:13:20;91013.88;;;34.84;30.27
44481;BME280;30184;42.018;23.670;2023-07-20T11:16:08;91023.94;;;34.87;29.73
44481;BME280;30184;42.018;23.670;2023-07-20T11:18:37;91012.09;;;34.79;30.17
44481;BME280;30184;42.018;23.670;2023-07-20T11:21:09;91001.16;;;34.64;30.78
44481;BME280;30184;42.018;23.670;2023-07-20T11:23:39;91056.94;;;34.75;30.43
44481;BME280;30184;42.018;23.670;2023-07-20T11:26:09;91025.38;;;34.98;30.77
44481;BME280;30184;42.018;23.670;2023-07-20T11:28:41;91045.53;;;35.04;31.57
44481;BME280;30184;42.018;23.670;2023-07-20T11:31:13;91018.88;;;34.95;29.34
44481;BME280;30184;42.018;23.670;2023-07-20T11:33:49;90987.06;;;34.64;29.57
44481;BME280;30184;42.018;23.670;2023-07-20T11:36:21;91026.19;;;34.69;30.37
44481;BME280;30184;42.018;23.670;2023-07-20T11:38:57;91016.63;;;34.43;30.46
44481;BME280;30184;42.018;23.670;2023-07-20T11:41:27;90956.78;;;33.95;30.51
44481;BME280;30184;42.018;23.670;2023-07-20T11:43:59;90937.25;;;33.97;31.08
44481;BME280;30184;42.018;23.670;2023-07-20T11:46:28;91016.84;;;34.76;30.46
44481;BME280;30184;42.018;23.670;2023-07-20T11:48:58;91003.75;;;34.91;30.35
44481;BME280;30184;42.018;23.670;2023-07-20T11:51:29;91007.50;;;35.14;30.91
44481;BME280;30184;42.018;23.670;2023-07-20T11:53:59;91004.69;;;35.14;29.89
44481;BME280;30184;42.018;23.670;2023-07-20T11:56:28;91015.34;;;35.26;29.77
44481;BME280;30184;42.018;23.670;2023-07-20T11:59:00;91006.16;;;35.15;28.96
44481;BME280;30184;42.018;23.670;2023-07-20T12:01:30;90992.44;;;35.00;30.30
44481;BME280;30184;42.018;23.670;2023-07-20T12:04:03;91016.09;;;34.86;29.58
44481;BME280;30184;42.018;23.670;2023-07-20T12:06:34;90998.59;;;34.77;28.05
44481;BME280;30184;42.018;23.670;2023-07-20T12:09:04;91002.91;;;34.69;28.88
44481;BME280;30184;42.018;23.670;2023-07-20T12:11:34;90988.00;;;34.57;29.97
44481;BME280;30184;42.018;23.670;2023-07-20T12:14:07;90963.56;;;34.30;29.77
44481;BME280;30184;42.018;23.670;2023-07-20T12:16:43;90979.59;;;34.37;29.52
44481;BME280;30184;42.018;23.670;2023-07-20T12:19:13;90980.34;;;34.28;30.53
44481;BME280;30184;42.018;23.670;2023-07-20T12:21:42;90992.75;;;34.44;30.11
44481;BME280;30184;42.018;23.670;2023-07-20T12:24:12;90923.59;;;33.93;30.15
44481;BME280;30184;42.018;23.670;2023-07-20T12:26:41;91011.16;;;34.46;30.72
44481;BME280;30184;42.018;23.670;2023-07-20T12:29:12;90976.28;;;34.51;30.54
44481;BME280;30184;42.018;23.670;2023-07-20T12:31:41;90980.16;;;34.46;29.56
44481;BME280;30184;42.018;23.670;2023-07-20T12:34:11;90988.03;;;34.37;30.75
44481;BME280;30184;42.018;23.670;2023-07-20T12:36:41;90978.28;;;34.29;30.62
44481;BME280;30184;42.018;23.670;2023-07-20T12:39:11;90976.47;;;34.33;28.38
44481;BME280;30184;42.018;23.670;2023-07-20T12:41:40;90919.94;;;33.91;28.15
44481;BME280;30184;42.018;23.670;2023-07-20T12:44:12;90959.00;;;34.25;28.92
44481;BME280;30184;42.018;23.670;2023-07-20T12:46:41;90973.50;;;34.22;29.77
44481;BME280;30184;42.018;23.670;2023-07-20T12:49:11;90978.88;;;34.27;29.80
44481;BME280;30184;42.018;23.670;2023-07-20T12:51:40;90987.31;;;34.27;28.95
44481;BME280;30184;42.018;23.670;2023-07-20T12:54:10;90969.09;;;34.28;28.74
44481;BME280;30184;42.018;23.670;2023-07-20T12:56:42;90978.84;;;34.37;29.07
44481;BME280;30184;42.018;23.670;2023-07-20T12:59:15;90973.66;;;34.33;27.71
44481;BME280;30184;42.018;23.670;2023-07-20T13:01:45;91010.59;;;34.28;28.06
44481;BME280;30184;42.018;23.670;2023-07-20T13:04:15;90989.41;;;34.27;28.14
44481;BME280;30184;42.018;23.670;2023-07-20T13:06:44;90962.56;;;34.06;28.13
44481;BME280;30184;42.018;23.670;2023-07-20T13:09:14;90993.53;;;34.16;27.14
44481;BME280;30184;42.018;23.670;2023-07-20T13:11:44;90977.53;;;34.28;27.15
44481;BME280;30184;42.018;23.670;2023-07-20T13:14:15;90971.00;;;34.16;28.07